createdAt,value
2018-06-10T04:00:39.855Z,19.40
2018-06-10T04:03:06.838Z,20.57
2018-06-10T04:05:33.837Z,20.33
2018-06-10T04:08:00.813Z,22.23
2018-06-10T04:10:27.822Z,22.40
2018-06-10T04:12:54.807Z,23.43
2018-06-10T04:15:21.805Z,19.10
2018-06-10T04:17:48.806Z,21.13
2018-06-10T04:20:15.806Z,21.50
2018-06-10T04:22:42.798Z,21.13
2018-06-10T04:25:09.798Z,20.83
2018-06-10T04:27:36.789Z,20.57
2018-06-10T04:30:03.840Z,22.67
2018-06-10T04:32:30.837Z,27.20
2018-06-10T04:34:57.833Z,28.17
2018-06-10T04:37:24.829Z,25.37
2018-06-10T04:39:51.815Z,24.20
2018-06-10T04:42:18.821Z,26.53
2018-06-10T04:44:45.812Z,23.67
2018-06-10T04:47:12.865Z,22.93
2018-06-10T04:49:39.802Z,25.30
2018-06-10T04:52:06.802Z,25.40
2018-06-10T04:54:33.798Z,24.30
2018-06-10T04:57:00.799Z,25.10
2018-06-10T04:59:27.799Z,24.87
2018-06-10T05:01:54.801Z,23.37
2018-06-10T05:04:21.805Z,23.63
2018-06-10T05:06:48.805Z,23.07
2018-06-10T05:09:15.781Z,24.53
2018-06-10T05:11:42.785Z,23.40
2018-06-10T05:14:09.757Z,24.63
2018-06-10T05:16:36.755Z,21.97
2018-06-10T05:19:04.006Z,21.87
2018-06-10T05:21:30.993Z,20.90
2018-06-10T05:23:57.981Z,22.27
2018-06-10T05:26:24.977Z,19.90
2018-06-10T05:28:51.986Z,20.53
2018-06-10T05:31:18.974Z,22.17
2018-06-10T05:33:45.966Z,18.10
2018-06-10T05:36:12.962Z,19.50
2018-06-10T05:38:39.972Z,18.60
2018-06-10T05:41:06.953Z,20.67
2018-06-10T05:43:33.946Z,19.27
2018-06-10T05:46:00.949Z,19.13
2018-06-10T05:48:27.961Z,19.00
2018-06-10T05:50:54.966Z,19.10
2018-06-10T05:53:21.961Z,20.23
2018-06-10T05:55:48.974Z,20.43
2018-06-10T05:58:15.986Z,20.47
2018-06-10T06:00:42.995Z,20.47
2018-06-10T06:03:09.990Z,22.53
2018-06-10T06:05:37.001Z,21.07
2018-06-10T06:08:04.126Z,22.13
2018-06-10T06:10:31.229Z,21.20
2018-06-10T06:12:58.219Z,21.07
2018-06-10T06:15:25.216Z,21.83
2018-06-10T06:17:52.205Z,22.37
2018-06-10T06:20:19.207Z,22.90
2018-06-10T06:22:46.189Z,23.90
2018-06-10T06:25:13.193Z,21.97
2018-06-10T06:27:40.177Z,22.00
2018-06-10T06:30:07.170Z,22.30
2018-06-10T06:32:34.165Z,25.10
2018-06-10T06:35:01.178Z,23.63
2018-06-10T06:37:28.169Z,23.50
2018-06-10T06:39:55.161Z,22.37
2018-06-10T06:42:22.141Z,20.97
2018-06-10T06:44:49.143Z,20.10
2018-06-10T06:47:16.125Z,21.50
2018-06-10T06:49:43.134Z,20.40
2018-06-10T06:52:10.117Z,19.90
2018-06-10T06:54:37.129Z,18.93
2018-06-10T06:57:04.193Z,18.53
2018-06-10T06:59:31.182Z,18.40
2018-06-10T07:01:58.152Z,18.47
2018-06-10T07:04:25.120Z,18.60
2018-06-10T07:06:52.105Z,19.90
2018-06-10T07:09:19.073Z,17.20
2018-06-10T07:11:46.058Z,18.60
2018-06-10T07:14:16.847Z,17.80
2018-06-10T07:16:46.052Z,19.47
2018-06-10T07:19:15.645Z,17.63
2018-06-10T07:21:45.933Z,16.73
2018-06-10T07:24:12.937Z,17.53
2018-06-10T07:26:39.969Z,16.30
2018-06-10T07:29:06.970Z,18.33
2018-06-10T07:31:34.189Z,17.37
2018-06-10T07:34:01.166Z,17.00
2018-06-10T07:36:28.145Z,18.00
2018-06-10T07:38:55.126Z,16.80
2018-06-10T07:41:22.107Z,16.23
2018-06-10T07:43:49.081Z,16.40
2018-06-10T07:46:16.935Z,13.50
2018-06-10T07:48:43.920Z,15.70
2018-06-10T07:51:10.901Z,16.50
2018-06-10T07:53:37.861Z,14.33
2018-06-10T07:56:04.842Z,14.70
2018-06-10T07:58:32.089Z,17.60
2018-06-10T08:00:59.110Z,15.67
2018-06-10T08:03:26.097Z,14.67
2018-06-10T08:05:53.069Z,14.97
2018-06-10T08:08:20.046Z,15.47
2018-06-10T08:10:47.026Z,15.53
2018-06-10T08:13:14.013Z,15.67
2018-06-10T08:15:40.997Z,15.70
2018-06-10T08:18:07.969Z,15.47
2018-06-10T08:20:34.926Z,13.60
2018-06-10T08:23:01.894Z,12.80
2018-06-10T08:25:28.904Z,13.20
2018-06-10T08:27:55.890Z,14.10
2018-06-10T08:30:22.862Z,13.10
2018-06-10T08:32:49.853Z,13.60
2018-06-10T08:35:17.205Z,13.30
2018-06-10T08:37:44.912Z,11.90
2018-06-10T08:40:11.923Z,10.77
2018-06-10T08:42:38.908Z,10.53
2018-06-10T08:45:05.938Z,10.27
2018-06-10T08:47:32.983Z,9.50
2018-06-10T08:50:00.019Z,9.47
2018-06-10T08:52:27.037Z,9.40
2018-06-10T08:54:54.023Z,9.00
2018-06-10T08:57:21.051Z,9.00
2018-06-10T08:59:48.074Z,8.77
2018-06-10T09:02:15.071Z,9.03
2018-06-10T09:04:42.074Z,8.23
2018-06-10T09:07:09.079Z,8.93
2018-06-10T09:09:36.085Z,8.50
2018-06-10T09:12:03.147Z,8.97
2018-06-10T09:14:30.138Z,7.63
2018-06-10T09:16:57.138Z,7.83
2018-06-10T09:19:24.134Z,7.73
2018-06-10T09:21:51.130Z,9.60
2018-06-10T09:24:18.135Z,9.33
2018-06-10T09:26:45.130Z,8.60
2018-06-10T09:29:12.126Z,9.10
2018-06-10T09:31:39.138Z,8.83
2018-06-10T09:34:06.139Z,8.80
2018-06-10T09:36:33.147Z,8.10
2018-06-10T09:39:00.155Z,8.93
2018-06-10T09:41:27.162Z,8.80
2018-06-10T09:43:54.171Z,7.83
2018-06-10T09:46:21.214Z,8.00
2018-06-10T09:48:48.242Z,8.00
2018-06-10T09:51:15.248Z,8.40
2018-06-10T09:53:42.250Z,7.67
2018-06-10T09:56:09.251Z,8.33
2018-06-10T09:58:36.245Z,8.20
2018-06-10T10:01:03.441Z,6.83
2018-06-10T10:03:30.446Z,5.67
2018-06-10T10:05:57.429Z,6.03
2018-06-10T10:08:24.470Z,7.87
2018-06-10T10:10:51.456Z,6.73
2018-06-10T10:13:18.449Z,6.40
2018-06-10T10:15:45.442Z,7.13
2018-06-10T10:18:12.442Z,7.07
2018-06-10T10:20:39.448Z,6.70
2018-06-10T10:23:06.450Z,7.10
2018-06-10T10:25:33.479Z,7.53
2018-06-10T10:28:00.493Z,7.73
2018-06-10T10:30:27.482Z,6.80
2018-06-10T10:32:54.490Z,5.80
2018-06-10T10:35:21.496Z,6.40
2018-06-10T10:37:48.512Z,6.50
2018-06-10T10:40:15.519Z,6.80
2018-06-10T10:42:42.513Z,6.30
2018-06-10T10:45:09.506Z,6.60
2018-06-10T10:47:36.515Z,6.53
2018-06-10T10:50:03.526Z,6.43
2018-06-10T10:52:30.520Z,6.97
2018-06-10T10:54:57.533Z,5.80
2018-06-10T10:57:24.537Z,6.10
2018-06-10T10:59:51.602Z,5.47
2018-06-10T11:02:18.582Z,5.50
2018-06-10T11:04:45.602Z,10.07
2018-06-10T11:07:12.611Z,5.53
2018-06-10T11:09:39.621Z,4.70
2018-06-10T11:12:06.613Z,5.10
2018-06-10T11:14:33.628Z,4.80
2018-06-10T11:17:01.338Z,5.03
2018-06-10T11:19:28.361Z,4.57
2018-06-10T11:21:55.379Z,4.00
2018-06-10T11:24:22.405Z,4.80
2018-06-10T11:26:49.418Z,4.50
2018-06-10T11:29:16.487Z,4.30
2018-06-10T11:31:43.519Z,4.00
2018-06-10T11:34:10.530Z,4.40
2018-06-10T11:36:37.546Z,4.30
2018-06-10T11:39:06.898Z,4.40
2018-06-10T11:41:33.937Z,5.23
2018-06-10T11:44:00.946Z,4.60
2018-06-10T11:46:27.958Z,4.50
2018-06-10T11:48:54.954Z,4.03
2018-06-10T11:51:21.974Z,4.90
2018-06-10T11:53:48.992Z,4.60
2018-06-10T11:56:16.026Z,4.57
2018-06-10T11:58:43.034Z,4.20
2018-06-10T12:01:10.054Z,4.70
2018-06-10T12:03:37.066Z,3.93
2018-06-10T12:06:04.082Z,4.67
2018-06-10T12:08:31.081Z,4.63
2018-06-10T12:10:58.150Z,3.80
2018-06-10T12:13:25.158Z,4.03
2018-06-10T12:15:52.177Z,3.80
2018-06-10T12:18:19.186Z,4.50
2018-06-10T12:20:46.194Z,4.73
2018-06-10T12:23:13.210Z,4.77
2018-06-10T12:25:40.214Z,4.27
2018-06-10T12:28:07.221Z,4.43
2018-06-10T12:30:34.226Z,4.90
2018-06-10T12:33:01.229Z,4.57
2018-06-10T12:35:29.320Z,4.70
2018-06-10T12:37:56.349Z,4.40
2018-06-10T12:40:23.446Z,4.60
2018-06-10T12:42:50.461Z,4.90
2018-06-10T12:45:17.470Z,4.47
2018-06-10T12:47:44.479Z,4.37
2018-06-10T12:50:11.494Z,4.27
2018-06-10T12:52:38.501Z,5.10
2018-06-10T12:55:05.534Z,5.27
2018-06-10T12:57:32.551Z,4.70
2018-06-10T12:59:59.570Z,6.27
2018-06-10T13:02:26.598Z,6.27
2018-06-10T13:04:53.602Z,6.30
2018-06-10T13:07:20.594Z,5.60
2018-06-10T13:09:47.621Z,4.90
2018-06-10T13:12:14.621Z,5.50
2018-06-10T13:14:41.633Z,5.83
2018-06-10T13:17:08.635Z,5.13
2018-06-10T13:19:35.641Z,6.00
2018-06-10T13:22:02.707Z,5.07
2018-06-10T13:24:29.726Z,5.80
2018-06-10T13:26:56.723Z,5.40
2018-06-10T13:29:23.754Z,5.60
2018-06-10T13:31:50.754Z,5.63
2018-06-10T13:34:17.748Z,6.23
2018-06-10T13:36:45.509Z,6.37
2018-06-10T13:39:12.513Z,5.47
2018-06-10T13:41:39.559Z,6.60
2018-06-10T13:44:06.574Z,6.60
2018-06-10T13:46:34.277Z,8.10
2018-06-10T13:49:01.283Z,7.43
2018-06-10T13:51:28.344Z,7.10
2018-06-10T13:53:55.426Z,7.33
2018-06-10T13:56:22.459Z,6.93
2018-06-10T13:58:49.475Z,7.53
2018-06-10T14:01:16.530Z,8.00
2018-06-10T14:03:43.538Z,8.10
2018-06-10T14:06:10.623Z,7.53
2018-06-10T14:08:37.546Z,7.77
2018-06-10T14:11:04.547Z,7.83
2018-06-10T14:13:32.398Z,7.73
2018-06-10T14:15:59.421Z,8.30
2018-06-10T14:18:26.406Z,7.93
2018-06-10T14:20:53.428Z,7.73
2018-06-10T14:23:20.406Z,8.00
2018-06-10T14:25:47.410Z,8.00
2018-06-10T14:28:14.406Z,7.80
2018-06-10T14:30:41.402Z,7.80
2018-06-10T14:33:08.464Z,8.20
2018-06-10T14:35:35.477Z,8.33
2018-06-10T14:38:02.494Z,7.73
2018-06-10T14:40:29.504Z,7.67
2018-06-10T14:42:56.521Z,8.20
2018-06-10T14:45:23.521Z,8.07
2018-06-10T14:47:50.529Z,7.97
2018-06-10T14:50:17.533Z,8.27
2018-06-10T14:52:44.532Z,6.67
2018-06-10T14:55:11.518Z,5.40
2018-06-10T14:57:38.521Z,5.70
2018-06-10T15:00:05.521Z,5.70
2018-06-10T15:02:32.522Z,6.90
2018-06-10T15:04:59.518Z,7.10
2018-06-10T15:07:26.513Z,5.67
2018-06-10T15:09:53.498Z,6.57
2018-06-10T15:12:20.515Z,6.97
2018-06-10T15:14:47.505Z,6.87
2018-06-10T15:17:14.502Z,6.20
2018-06-10T15:19:41.505Z,6.30
2018-06-10T15:22:08.506Z,5.83
2018-06-10T15:24:35.507Z,5.57
2018-06-10T15:27:02.502Z,5.97
2018-06-10T15:29:29.503Z,5.80
2018-06-10T15:31:56.497Z,6.37
2018-06-10T15:34:23.544Z,6.63
2018-06-10T15:36:51.343Z,6.57
2018-06-10T15:39:18.342Z,7.70
2018-06-10T15:41:45.334Z,8.40
2018-06-10T15:44:12.365Z,8.67
2018-06-10T15:46:39.358Z,7.33
2018-06-10T15:49:06.361Z,7.70
2018-06-10T15:51:33.369Z,7.27
2018-06-10T15:54:00.362Z,7.30
2018-06-10T15:56:27.426Z,7.60
2018-06-10T15:58:54.433Z,7.97
2018-06-10T16:01:21.442Z,8.47
2018-06-10T16:03:48.425Z,7.70
2018-06-10T16:06:15.417Z,8.40
2018-06-10T16:08:42.405Z,8.00
2018-06-10T16:11:09.394Z,10.57
2018-06-10T16:13:42.053Z,9.43
2018-06-10T16:16:13.138Z,8.50
2018-06-10T16:18:44.410Z,8.47
2018-06-10T16:21:11.417Z,8.30
2018-06-10T16:23:38.424Z,9.10
2018-06-10T16:26:05.463Z,9.03
2018-06-10T16:28:32.533Z,9.47
2018-06-10T16:30:59.646Z,8.90
2018-06-10T16:33:26.763Z,9.03
2018-06-10T16:35:53.783Z,9.07
2018-06-10T16:38:20.895Z,9.10
2018-06-10T16:40:47.849Z,9.40
2018-06-10T16:43:14.890Z,9.40
2018-06-10T16:45:41.902Z,8.40
2018-06-10T16:48:08.898Z,8.77
2018-06-10T16:50:35.922Z,8.33
2018-06-10T16:53:03.033Z,8.60
2018-06-10T16:55:30.066Z,8.30
2018-06-10T16:57:57.083Z,7.67
2018-06-10T17:00:24.074Z,8.83
2018-06-10T17:02:51.077Z,7.50
2018-06-10T17:05:18.066Z,8.47
2018-06-10T17:07:45.114Z,8.23
2018-06-10T17:10:12.102Z,8.10
2018-06-10T17:12:39.094Z,8.40
2018-06-10T17:15:06.116Z,8.13
2018-06-10T17:17:33.989Z,9.00
2018-06-10T17:20:00.973Z,8.60
2018-06-10T17:22:27.972Z,8.17
2018-06-10T17:24:54.970Z,8.43
2018-06-10T17:27:21.974Z,8.63
2018-06-10T17:29:48.949Z,9.07
2018-06-10T17:32:15.954Z,9.03
2018-06-10T17:34:42.978Z,8.60
2018-06-10T17:37:09.958Z,8.63
2018-06-10T17:39:36.954Z,8.40
2018-06-10T17:42:03.942Z,8.60
2018-06-10T17:44:30.953Z,9.03
2018-06-10T17:46:57.947Z,7.73
2018-06-10T17:49:24.935Z,9.57
2018-06-10T17:51:51.932Z,8.77
2018-06-10T17:54:18.934Z,9.93
2018-06-10T17:56:45.926Z,8.33
2018-06-10T17:59:12.941Z,9.07
2018-06-10T18:01:39.922Z,8.93
2018-06-10T18:04:06.910Z,9.50
2018-06-10T18:06:33.910Z,10.07
2018-06-10T18:09:01.581Z,9.90
2018-06-10T18:11:28.582Z,9.37
2018-06-10T18:13:55.579Z,9.70
2018-06-10T18:16:22.558Z,9.93
2018-06-10T18:18:49.558Z,8.93
2018-06-10T18:21:16.598Z,9.83
2018-06-10T18:23:43.570Z,9.60
2018-06-10T18:26:10.557Z,9.90
2018-06-10T18:28:37.553Z,10.57
2018-06-10T18:31:04.542Z,9.50
2018-06-10T18:33:31.586Z,10.90
2018-06-10T18:35:59.624Z,10.20
2018-06-10T18:38:26.606Z,10.67
2018-06-10T18:40:53.643Z,10.70
2018-06-10T18:43:20.595Z,10.57
2018-06-10T18:45:47.593Z,11.13
2018-06-10T18:48:14.594Z,11.57
2018-06-10T18:50:41.590Z,12.00
2018-06-10T18:53:08.597Z,12.20
2018-06-10T18:55:35.596Z,11.47
2018-06-10T18:58:02.678Z,10.07
2018-06-10T19:00:29.677Z,11.63
2018-06-10T19:02:57.669Z,11.57
2018-06-10T19:05:24.628Z,10.33
2018-06-10T19:07:51.629Z,10.77
2018-06-10T19:10:21.761Z,11.73
2018-06-10T19:12:48.730Z,11.17
2018-06-10T19:15:15.722Z,10.27
2018-06-10T19:17:42.742Z,10.37
2018-06-10T19:20:09.745Z,9.43
2018-06-10T19:22:36.747Z,10.53
2018-06-10T19:25:03.751Z,10.97
2018-06-10T19:27:30.757Z,10.20
2018-06-10T19:29:57.770Z,11.30
2018-06-10T19:32:24.822Z,10.57
2018-06-10T19:34:51.850Z,11.03
2018-06-10T19:37:18.934Z,11.83
2018-06-10T19:39:45.941Z,11.20
2018-06-10T19:42:13.100Z,10.90
2018-06-10T19:44:40.101Z,11.33
2018-06-10T19:47:07.088Z,11.40
2018-06-10T19:49:34.097Z,10.73
2018-06-10T19:52:01.134Z,11.90
2018-06-10T19:54:28.103Z,11.17
2018-06-10T19:56:55.155Z,11.20
2018-06-10T19:59:22.138Z,12.40
2018-06-10T20:01:49.142Z,11.00
2018-06-10T20:04:16.144Z,11.90
2018-06-10T20:06:43.129Z,12.97
2018-06-10T20:09:10.150Z,12.80
2018-06-10T20:11:37.170Z,12.00
2018-06-10T20:14:04.194Z,12.13
2018-06-10T20:16:31.186Z,11.60
2018-06-10T20:18:58.209Z,13.03
2018-06-10T20:21:25.205Z,11.40
2018-06-10T20:23:52.211Z,12.13
2018-06-10T20:26:19.983Z,11.50
2018-06-10T20:28:47.033Z,12.33
2018-06-10T20:31:14.021Z,13.70
2018-06-10T20:33:43.178Z,13.00
2018-06-10T20:36:10.181Z,12.97
2018-06-10T20:38:37.182Z,14.57
2018-06-10T20:41:04.190Z,12.53
2018-06-10T20:43:31.182Z,11.97
2018-06-10T20:45:58.203Z,11.63
2018-06-10T20:48:25.236Z,12.30
2018-06-10T20:50:52.226Z,11.30
2018-06-10T20:53:21.773Z,12.47
2018-06-10T20:55:54.256Z,12.17
2018-06-10T20:58:24.498Z,11.60
2018-06-10T21:00:51.554Z,13.20
2018-06-10T21:03:23.474Z,12.80
2018-06-10T21:05:53.086Z,12.30
2018-06-10T21:08:24.413Z,12.03
2018-06-10T21:10:54.566Z,12.10
2018-06-10T21:13:21.581Z,12.20
2018-06-10T21:15:48.615Z,11.67
2018-06-10T21:18:15.629Z,11.47
2018-06-10T21:20:42.640Z,11.67
2018-06-10T21:23:09.670Z,13.97
2018-06-10T21:25:36.689Z,13.10
2018-06-10T21:28:03.707Z,12.30
2018-06-10T21:30:30.728Z,13.20
2018-06-10T21:32:57.709Z,13.10
2018-06-10T21:35:24.691Z,12.70
2018-06-10T21:37:51.673Z,12.70
2018-06-10T21:40:18.633Z,13.57
2018-06-10T21:42:45.618Z,14.13
2018-06-10T21:45:12.602Z,13.60
2018-06-10T21:47:39.629Z,14.00
2018-06-10T21:50:06.613Z,12.67
2018-06-10T21:52:33.621Z,13.40
2018-06-10T21:55:00.594Z,14.20
2018-06-10T21:57:27.601Z,13.90
2018-06-10T21:59:54.573Z,13.83
2018-06-10T22:02:22.738Z,13.77
2018-06-10T22:04:49.729Z,13.30
2018-06-10T22:07:16.706Z,12.80
2018-06-10T22:09:52.355Z,13.30
2018-06-10T22:12:19.473Z,14.00
2018-06-10T22:14:46.523Z,12.57
2018-06-10T22:17:13.519Z,12.83
2018-06-10T22:19:40.498Z,13.70
2018-06-10T22:22:07.492Z,12.40
2018-06-10T22:24:34.514Z,12.60
2018-06-10T22:27:01.520Z,13.30
2018-06-10T22:29:28.558Z,12.57
2018-06-10T22:31:55.626Z,13.10
2018-06-10T22:34:22.582Z,13.70
2018-06-10T22:36:49.719Z,13.23
2018-06-10T22:41:46.290Z,13.13
2018-06-10T22:44:13.313Z,13.47
2018-06-10T22:46:40.321Z,13.40
2018-06-10T22:49:07.381Z,13.90
2018-06-10T22:51:34.389Z,14.23
2018-06-10T22:54:13.025Z,13.90
2018-06-10T22:56:40.024Z,13.10
2018-06-10T22:59:07.118Z,14.60
2018-06-10T23:01:34.146Z,14.83
2018-06-10T23:04:01.220Z,14.40
2018-06-10T23:06:28.221Z,15.70
2018-06-10T23:08:55.290Z,15.00
2018-06-10T23:11:22.318Z,17.00
2018-06-10T23:13:49.374Z,14.67
2018-06-10T23:16:16.371Z,14.03
2018-06-10T23:18:43.381Z,15.53
2018-06-10T23:21:10.395Z,15.77
2018-06-10T23:23:37.414Z,15.90
2018-06-10T23:26:04.458Z,15.23
2018-06-10T23:28:31.465Z,14.67
2018-06-10T23:30:58.485Z,15.07
2018-06-10T23:33:25.486Z,15.00
2018-06-10T23:35:52.498Z,15.00
2018-06-10T23:38:19.615Z,14.20
2018-06-10T23:40:46.655Z,15.80
2018-06-10T23:43:13.650Z,15.13
2018-06-10T23:45:40.670Z,14.87
2018-06-10T23:48:07.684Z,15.30
2018-06-10T23:50:34.694Z,16.10
2018-06-10T23:53:01.725Z,14.67
2018-06-10T23:55:28.735Z,13.70
2018-06-10T23:57:55.758Z,14.60
